Time;durP1;ratioP1;P1;durP2;ratioP2;P2;SDS_P1;SDS_P2;PMS_P1;PMS_P2;Temp;Humidity;BMP_temperature;BMP_pressure;BME280_temperature;BME280_humidity;BME280_pressure;Samples;Min_cycle;Max_cycle;Signal;HPM_P1;HPM_P2
2023/06/28 00:02:19;;;;;;;5.70;5.30;;;;;;;13.05;97.42;100855.00;6026619;23;20035;-85
2023/06/28 00:04:46;;;;;;;5.78;5.32;;;;;;;13.06;97.66;100893.63;6072929;23;20022;-83
2023/06/28 00:07:13;;;;;;;5.75;5.28;;;;;;;13.35;97.84;100916.47;6088513;23;20464;-83
2023/06/28 00:09:39;;;;;;;5.05;4.80;;;;;;;14.25;97.81;101064.91;6055047;23;20081;-82
2023/06/28 00:12:06;;;;;;;5.85;5.28;;;;;;;14.38;98.69;101107.22;6049119;23;20092;-82
2023/06/28 00:14:33;;;;;;;5.82;5.43;;;;;;;16.20;99.53;101395.53;6088222;23;20201;-82
2023/06/28 00:16:59;;;;;;;6.05;5.55;;;;;;;14.45;99.99;101136.72;6041477;23;20172;-83
2023/06/28 00:19:26;;;;;;;5.60;5.30;;;;;;;15.29;100.00;101276.03;6069516;23;20018;-81
2023/06/28 00:21:54;;;;;;;5.60;5.30;;;;;;;15.03;100.00;101209.75;6042542;23;20080;-82
2023/06/28 00:24:21;;;;;;;6.65;5.07;;;;;;;14.26;100.00;101102.69;6078580;23;20209;-84
2023/06/28 00:26:48;;;;;;;5.72;5.35;;;;;;;13.42;100.00;100956.47;6041861;23;20015;-83
2023/06/28 00:29:15;;;;;;;6.18;5.57;;;;;;;10.82;100.00;100537.34;6094157;23;20025;-86
2023/06/28 00:31:45;;;;;;;5.93;5.53;;;;;;;15.91;100.00;101450.31;6060210;23;20014;-86
2023/06/28 00:34:12;;;;;;;5.90;5.50;;;;;;;13.24;100.00;101007.63;6068996;23;20010;-83
2023/06/28 00:36:38;;;;;;;6.50;5.85;;;;;;;12.35;100.00;100874.84;6017237;23;20366;-84
2023/06/28 00:39:05;;;;;;;5.95;5.60;;;;;;;11.83;100.00;100764.66;6064753;23;20128;-84
2023/06/28 00:41:32;;;;;;;5.60;5.30;;;;;;;12.48;100.00;100924.16;6065094;23;20113;-84
2023/06/28 00:43:59;;;;;;;5.90;5.50;;;;;;;14.35;100.00;101195.41;6071317;23;20115;-85
2023/06/28 00:46:26;;;;;;;5.85;5.45;;;;;;;12.40;100.00;100914.06;6043942;23;20175;-84
2023/06/28 00:48:52;;;;;;;6.05;5.60;;;;;;;13.04;100.00;101077.28;6067948;23;20035;-83
2023/06/28 00:51:20;;;;;;;5.85;5.45;;;;;;;14.85;100.00;101306.03;6047008;23;20091;-85
2023/06/28 00:53:46;;;;;;;6.35;5.85;;;;;;;12.91;100.00;100996.31;6070041;23;20010;-84
2023/06/28 00:56:13;;;;;;;5.18;4.97;;;;;;;15.50;100.00;101443.97;6040015;23;20077;-85
2023/06/28 00:58:40;;;;;;;6.18;5.45;;;;;;;13.42;100.00;101108.56;6067828;23;20076;-84
2023/06/28 01:01:06;;;;;;;6.25;5.80;;;;;;;11.69;100.00;100823.28;6017293;23;20464;-83
2023/06/28 01:03:35;;;;;;;5.78;5.35;;;;;;;11.83;100.00;100875.09;6089008;23;20021;-85
2023/06/28 01:06:03;;;;;;;6.03;5.53;;;;;;;15.27;100.00;101433.94;6065392;23;20018;-85
2023/06/28 01:08:33;;;;;;;11.52;5.80;;;;;;;13.46;100.00;101165.44;6096885;23;20024;-83
2023/06/28 01:11:00;;;;;;;6.78;5.60;;;;;;;14.34;100.00;101323.06;6046631;23;20014;-84
2023/06/28 01:13:27;;;;;;;6.13;5.65;;;;;;;11.17;100.00;100837.41;6066524;23;20094;-83
2023/06/28 01:15:54;;;;;;;8.25;5.20;;;;;;;12.75;100.00;101095.56;6048496;23;20044;-84
2023/06/28 01:18:23;;;;;;;6.30;5.70;;;;;;;11.61;100.00;100925.38;6063806;23;20107;-85
2023/06/28 01:20:56;;;;;;;6.07;5.68;;;;;;;14.03;100.00;101312.56;6063775;23;20017;-84
2023/06/28 01:23:26;;;;;;;5.45;5.15;;;;;;;12.33;100.00;101036.44;6047583;23;20123;-83
2023/06/28 01:25:56;;;;;;;6.35;5.53;;;;;;;11.83;100.00;100998.69;6048089;23;20046;-83
2023/06/28 01:28:23;;;;;;;5.10;4.85;;;;;;;11.09;100.00;100834.34;6072311;23;20014;-85
2023/06/28 01:30:59;;;;;;;5.22;4.93;;;;;;;12.72;100.00;101129.97;6048745;23;20027;-85
2023/06/28 01:33:28;;;;;;;5.88;5.38;;;;;;;11.67;100.00;100929.44;6048720;23;20037;-84
2023/06/28 01:35:58;;;;;;;5.53;5.13;;;;;;;12.41;100.00;101099.16;6048684;23;20162;-84
2023/06/28 01:38:28;;;;;;;6.55;6.03;;;;;;;10.25;100.00;100703.03;6047223;23;20022;-84
2023/06/28 01:40:57;;;;;;;5.25;4.85;;;;;;;11.66;100.00;100923.31;6048552;23;20085;-84
2023/06/28 01:43:24;;;;;;;6.25;5.85;;;;;;;12.92;100.00;101113.06;6076647;23;20026;-83
2023/06/28 01:45:52;;;;;;;5.82;5.43;;;;;;;11.90;100.00;100978.22;6061421;23;20040;-84
2023/06/28 01:48:19;;;;;;;5.45;5.13;;;;;;;14.06;100.00;101392.44;6072509;23;20022;-84
2023/06/28 01:50:46;;;;;;;5.40;5.00;;;;;;;11.07;100.00;100838.00;6039652;23;20077;-83
2023/06/28 01:53:13;;;;;;;5.30;5.00;;;;;;;14.89;100.00;101455.56;6042659;23;20139;-83
2023/06/28 01:55:40;;;;;;;5.60;5.30;;;;;;;12.68;100.00;101117.91;6077993;23;20324;-84
2023/06/28 01:58:07;;;;;;;5.70;5.40;;;;;;;14.26;100.00;101375.47;6051800;23;20034;-83
2023/06/28 02:00:33;;;;;;;5.82;5.43;;;;;;;13.81;100.00;101340.19;6033065;23;20018;-84
2023/06/28 02:03:01;;;;;;;5.70;5.20;;;;;;;10.54;100.00;100774.16;6046230;23;20038;-85
2023/06/28 02:05:28;;;;;;;6.00;5.55;;;;;;;13.98;100.00;101335.75;6015284;23;20031;-85
2023/06/28 02:07:54;;;;;;;6.03;5.60;;;;;;;14.69;100.00;101505.13;6013816;23;20014;-85
2023/06/28 02:10:23;;;;;;;5.28;4.97;;;;;;;10.35;100.00;100801.34;6014437;23;20058;-85
2023/06/28 02:12:50;;;;;;;4.85;4.65;;;;;;;13.97;100.00;101350.69;6014563;23;20018;-85
2023/06/28 02:15:17;;;;;;;5.55;5.10;;;;;;;11.90;100.00;101083.41;6041285;23;20030;-85
2023/06/28 02:17:44;;;;;;;5.45;5.10;;;;;;;11.83;100.00;101017.09;6041458;23;20151;-84
2023/06/28 02:20:22;;;;;;;5.60;5.30;;;;;;;14.69;100.00;101514.84;6043095;23;20034;-86
2023/06/28 02:23:14;;;;;;;8.43;5.35;;;;;;;13.00;100.00;101250.50;6041750;23;20105;-86
2023/06/28 02:30:20;;;;;;;5.78;5.47;;;;;;;13.79;100.00;101304.25;5847415;24;20203;-85
2023/06/28 02:33:04;;;;;;;5.15;4.95;;;;;;;11.60;100.00;100980.63;5844951;24;20036;-85
2023/06/28 02:35:44;;;;;;;5.80;5.15;;;;;;;10.51;100.00;100818.94;5932528;23;20140;-85
2023/06/28 02:38:30;;;;;;;5.80;5.50;;;;;;;14.83;100.00;101537.84;6010468;23;20015;-86
2023/06/28 02:41:07;;;;;;;5.45;5.15;;;;;;;11.51;100.00;100911.84;6053439;23;20015;-86
2023/06/28 02:43:33;;;;;;;5.53;5.20;;;;;;;10.10;100.00;100693.28;6042731;23;20032;-85
2023/06/28 02:46:00;;;;;;;5.60;5.30;;;;;;;10.13;100.00;100738.56;6043432;23;20025;-85
2023/06/28 02:48:27;;;;;;;5.50;5.20;;;;;;;11.67;100.00;100982.88;6041719;23;20365;-86
2023/06/28 02:50:54;;;;;;;5.65;5.15;;;;;;;13.11;100.00;101205.97;6042490;23;20014;-86
2023/06/28 02:53:21;;;;;;;5.43;5.00;;;;;;;11.26;100.00;100890.41;6053665;23;20021;-84
2023/06/28 02:55:48;;;;;;;5.90;4.72;;;;;;;12.62;100.00;101119.06;6066314;23;20010;-84
2023/06/28 02:58:15;;;;;;;5.43;5.13;;;;;;;14.84;100.00;101492.00;6064603;23;20428;-85
2023/06/28 03:00:44;;;;;;;5.40;4.90;;;;;;;10.70;100.00;100769.84;6040654;23;20464;-84
2023/06/28 03:03:13;;;;;;;5.20;4.90;;;;;;;14.81;100.00;101484.22;6039988;23;20096;-85
2023/06/28 03:05:41;;;;;;;5.20;4.80;;;;;;;14.85;100.00;101509.53;6042227;23;20030;-85
2023/06/28 03:08:08;;;;;;;5.82;5.00;;;;;;;11.22;100.00;100912.50;6042532;23;20169;-84
2023/06/28 03:10:35;;;;;;;6.78;5.38;;;;;;;10.04;100.00;100688.34;6042482;23;20036;-85
2023/06/28 03:13:07;;;;;;;5.15;4.85;;;;;;;12.43;100.00;101084.13;6047702;23;20301;-84
2023/06/28 03:15:35;;;;;;;5.20;4.90;;;;;;;10.08;100.00;100703.88;6083608;23;20089;-86
2023/06/28 03:18:03;;;;;;;5.97;5.07;;;;;;;14.96;100.00;101510.63;6088148;23;20010;-85
2023/06/28 03:20:33;;;;;;;6.85;5.75;;;;;;;10.07;100.00;100685.59;6074710;23;20022;-86
2023/06/28 03:23:10;;;;;;;5.82;5.53;;;;;;;10.97;100.00;100827.13;6089299;23;20436;-86
2023/06/28 03:26:03;;;;;;;5.82;5.47;;;;;;;11.89;100.00;100984.41;6080413;23;20018;-86
2023/06/28 03:28:43;;;;;;;6.35;5.75;;;;;;;13.21;100.00;101127.25;6075404;23;20027;-85
2023/06/28 03:34:27;;;;;;;6.53;5.93;;;;;;;13.77;100.00;101219.91;6022167;23;20073;-85
2023/06/28 03:37:20;;;;;;;5.60;5.20;;;;;;;11.14;100.00;100807.84;6045241;23;20028;-86
2023/06/28 03:39:57;;;;;;;6.10;5.72;;;;;;;14.40;100.00;101363.28;6040726;23;20051;-84
2023/06/28 03:42:44;;;;;;;6.50;5.90;;;;;;;12.75;100.00;101022.69;6073182;23;20280;-85
2023/06/28 03:45:12;;;;;;;10.27;5.80;;;;;;;13.61;100.00;101213.81;6061683;23;20046;-83
2023/06/28 03:47:44;;;;;;;5.97;5.57;;;;;;;13.86;100.00;101200.94;6058973;23;20460;-84
2023/06/28 03:50:11;;;;;;;5.47;5.05;;;;;;;13.05;100.00;101132.53;6060628;23;20022;-85
2023/06/28 03:52:37;;;;;;;5.90;5.50;;;;;;;14.04;100.00;101277.34;6058390;23;20018;-84
2023/06/28 03:55:07;;;;;;;5.68;5.20;;;;;;;12.01;100.00;100888.19;6068479;23;20026;-85
2023/06/28 03:57:34;;;;;;;6.30;5.80;;;;;;;14.43;100.00;101320.84;6062546;23;20358;-84
2023/06/28 04:00:04;;;;;;;5.93;5.53;;;;;;;11.72;100.00;100872.19;6060817;23;20154;-84
2023/06/28 04:02:35;;;;;;;6.22;5.65;;;;;;;14.41;100.00;101296.31;6093040;23;20021;-84
2023/06/28 04:05:03;;;;;;;6.75;5.05;;;;;;;15.48;100.00;101434.44;6061285;23;20440;-84
2023/06/28 04:07:30;;;;;;;6.05;5.60;;;;;;;13.99;100.00;101226.59;6064086;23;20026;-85
2023/06/28 04:09:58;;;;;;;5.72;5.43;;;;;;;15.54;100.00;101448.13;6079938;23;20251;-84
2023/06/28 04:12:25;;;;;;;5.88;5.47;;;;;;;15.56;100.00;101474.50;6063216;23;20018;-84
2023/06/28 04:14:52;;;;;;;5.78;5.38;;;;;;;12.30;100.00;100936.56;6069352;23;20010;-84
2023/06/28 04:17:22;;;;;;;5.68;5.28;;;;;;;15.59;100.00;101490.19;6094761;23;20073;-86
2023/06/28 04:19:51;;;;;;;5.97;5.47;;;;;;;11.42;100.00;100806.38;6082204;23;20018;-85
2023/06/28 04:22:18;;;;;;;5.65;5.25;;;;;;;11.57;100.00;100780.09;6090254;23;20056;-84
2023/06/28 04:24:44;;;;;;;6.10;5.68;;;;;;;13.29;100.00;101034.53;6075337;23;20025;-84
2023/06/28 04:27:38;;;;;;;5.72;5.35;;;;;;;11.78;100.00;100804.34;6051007;23;20669;-85
2023/06/28 04:30:31;;;;;;;5.65;5.35;;;;;;;13.08;100.00;101024.31;6068862;23;20025;-85
2023/06/28 04:40:48;;;;;;;6.28;5.22;;;;;;;16.00;100.00;101446.28;6018732;23;20026;-85
2023/06/28 04:43:22;;;;;;;5.53;5.22;;;;;;;15.36;100.00;101311.72;6033467;23;20013;-86
2023/06/28 04:46:48;;;;;;;;;;;;;;;16.11;100.00;101426.09;6014983;23;20055;-84
2023/06/28 04:49:20;;;;;;;6.43;5.78;;;;;;;12.60;100.00;100864.72;5967867;23;19915;-85
2023/06/28 04:51:47;;;;;;;5.90;5.50;;;;;;;16.24;100.00;101451.81;5978256;23;20099;-85
2023/06/28 04:54:20;;;;;;;11.45;9.77;;;;;;;13.44;100.00;101003.84;6060657;23;20311;-84
2023/06/28 04:56:49;;;;;;;6.10;5.57;;;;;;;15.50;100.00;101303.78;6051711;23;20045;-82
2023/06/28 04:59:16;;;;;;;5.75;5.38;;;;;;;12.78;100.00;100877.63;6057275;23;20097;-82
2023/06/28 05:01:42;;;;;;;8.18;5.82;;;;;;;15.50;100.00;101305.56;6062852;23;20013;-84
2023/06/28 05:04:09;;;;;;;5.60;5.30;;;;;;;15.23;100.00;101316.06;6058464;23;20026;-84
2023/06/28 05:06:36;;;;;;;5.57;5.28;;;;;;;14.19;100.00;101054.69;6065655;23;20029;-84
2023/06/28 05:09:02;;;;;;;5.95;5.53;;;;;;;12.92;100.00;100866.28;6060200;23;20041;-82
2023/06/28 05:11:29;;;;;;;5.85;5.50;;;;;;;13.83;100.00;101016.44;6086974;23;20854;-82
2023/06/28 05:13:55;;;;;;;9.95;5.38;;;;;;;12.26;100.00;100770.13;6054773;23;20018;-82
2023/06/28 05:16:22;;;;;;;10.55;5.70;;;;;;;14.25;100.00;101064.03;6090187;23;20407;-82
2023/06/28 05:18:49;;;;;;;6.38;5.78;;;;;;;14.19;100.00;101056.50;6085448;23;20023;-80
2023/06/28 05:21:15;;;;;;;5.90;5.40;;;;;;;14.48;100.00;101112.78;6076395;23;20077;-83
2023/06/28 05:23:42;;;;;;;5.75;5.45;;;;;;;13.74;100.00;100966.88;6053552;23;20361;-82
2023/06/28 05:26:09;;;;;;;6.10;5.60;;;;;;;14.28;100.00;101058.56;6059313;23;20025;-81
2023/06/28 05:28:36;;;;;;;6.30;5.70;;;;;;;15.00;100.00;101143.06;6088889;23;20018;-83
2023/06/28 05:31:02;;;;;;;5.25;4.95;;;;;;;16.78;100.00;101419.13;6066563;23;20490;-81
2023/06/28 05:33:29;;;;;;;5.93;5.40;;;;;;;16.78;100.00;101413.81;6084314;23;20010;-82
2023/06/28 05:35:55;;;;;;;9.20;5.35;;;;;;;16.38;99.58;101374.06;6054962;23;20026;-81
2023/06/28 05:38:22;;;;;;;5.60;5.30;;;;;;;15.91;99.94;101284.41;6053367;23;20034;-82
2023/06/28 05:40:53;;;;;;;8.65;5.50;;;;;;;16.50;99.82;101386.53;6082653;23;20014;-83
2023/06/28 05:43:23;;;;;;;6.38;5.80;;;;;;;14.08;98.32;101023.69;6082945;23;20305;-82
2023/06/28 05:45:50;;;;;;;7.50;5.65;;;;;;;15.56;99.38;101287.50;6056418;23;20034;-81
2023/06/28 05:48:16;;;;;;;5.25;4.95;;;;;;;16.15;100.00;101357.88;6062356;23;20183;-82
2023/06/28 05:50:45;;;;;;;5.68;5.25;;;;;;;16.08;100.00;101351.31;6061390;23;20009;-81
2023/06/28 05:53:12;;;;;;;5.38;5.07;;;;;;;15.35;100.00;101212.16;6059035;23;20061;-81
2023/06/28 05:55:38;;;;;;;5.30;5.00;;;;;;;15.85;100.00;101305.13;6062407;23;20311;-81
2023/06/28 05:58:05;;;;;;;5.53;5.18;;;;;;;16.53;100.00;101413.66;6062435;23;20022;-81
2023/06/28 06:00:32;;;;;;;5.88;5.40;;;;;;;16.51;100.00;101406.75;6067768;23;20030;-81
2023/06/28 06:02:58;;;;;;;5.88;5.47;;;;;;;16.51;100.00;101407.59;6059374;23;20108;-81
2023/06/28 06:05:25;;;;;;;5.38;5.07;;;;;;;15.80;100.00;101278.97;6061141;23;20022;-81
2023/06/28 06:07:52;;;;;;;5.85;5.45;;;;;;;16.82;100.00;101426.81;6084518;23;20089;-81
2023/06/28 06:10:18;;;;;;;5.07;4.78;;;;;;;15.73;100.00;101227.38;6089015;23;20337;-82
2023/06/28 06:12:45;;;;;;;5.78;5.45;;;;;;;16.36;100.00;101326.50;6055997;23;20013;-81
2023/06/28 06:15:12;;;;;;;6.05;5.65;;;;;;;16.41;100.00;101318.25;6035516;23;20363;-81
2023/06/28 06:17:39;;;;;;;5.75;5.35;;;;;;;16.12;100.00;101274.22;6085520;23;20020;-83
2023/06/28 06:20:06;;;;;;;5.80;5.40;;;;;;;16.23;100.00;101297.31;6038515;23;20026;-81
2023/06/28 06:22:33;;;;;;;5.30;4.90;;;;;;;16.69;99.86;101341.94;6080600;23;20017;-82
2023/06/28 06:24:59;;;;;;;5.60;5.30;;;;;;;16.92;98.22;101384.63;6055097;23;20033;-83
2023/06/28 06:27:26;;;;;;;5.72;5.32;;;;;;;16.38;96.44;101307.84;6065088;23;20037;-83
2023/06/28 06:29:52;;;;;;;5.65;5.35;;;;;;;16.17;97.93;101265.94;6036768;23;20026;-81
2023/06/28 06:32:19;;;;;;;5.63;5.22;;;;;;;16.74;98.64;101361.03;6064843;23;20849;-81
2023/06/28 06:34:48;;;;;;;5.50;5.15;;;;;;;17.00;98.99;101373.47;6031864;23;20025;-82
2023/06/28 06:37:14;;;;;;;6.22;5.72;;;;;;;16.70;98.20;101338.34;6072735;23;20424;-82
2023/06/28 06:39:41;;;;;;;5.63;5.22;;;;;;;16.73;99.25;101337.28;6034988;23;20517;-80
2023/06/28 06:42:08;;;;;;;11.82;5.50;;;;;;;16.89;99.03;101345.91;6068177;23;20037;-80
2023/06/28 06:44:35;;;;;;;6.63;5.35;;;;;;;17.07;99.54;101357.06;6035187;23;20642;-81
2023/06/28 06:47:04;;;;;;;6.00;5.55;;;;;;;17.19;99.64;101363.31;6068409;23;20107;-81
2023/06/28 06:49:30;;;;;;;6.60;5.53;;;;;;;17.49;98.56;101401.94;6059135;23;20042;-81
2023/06/28 06:51:58;;;;;;;5.53;5.22;;;;;;;17.38;98.02;101360.25;6064588;23;20010;-81
2023/06/28 06:54:25;;;;;;;6.53;5.93;;;;;;;17.11;96.96;101321.41;6053114;23;20323;-82
2023/06/28 06:56:52;;;;;;;6.00;5.45;;;;;;;17.30;97.02;101354.63;6064201;23;20241;-81
2023/06/28 06:59:23;;;;;;;5.60;5.20;;;;;;;17.81;98.20;101399.63;6038513;23;20050;-82
2023/06/28 07:01:53;;;;;;;9.70;5.70;;;;;;;17.32;95.02;101365.97;6090353;23;20079;-81
2023/06/28 07:04:23;;;;;;;5.93;5.40;;;;;;;17.31;95.55;101391.63;6032283;23;20031;-81
2023/06/28 07:06:49;;;;;;;5.43;5.05;;;;;;;17.26;97.35;101382.28;6077224;23;20017;-81
2023/06/28 07:09:17;;;;;;;5.93;5.53;;;;;;;17.38;97.73;101362.00;6035321;23;20175;-83
2023/06/28 07:11:44;;;;;;;6.13;5.72;;;;;;;17.53;92.92;101382.19;6064882;23;20014;-81
2023/06/28 07:14:11;;;;;;;8.95;5.50;;;;;;;17.52;91.53;101362.75;6052018;23;20471;-82
2023/06/28 07:16:37;;;;;;;5.50;5.20;;;;;;;17.46;90.50;101352.59;6090071;23;20028;-81
2023/06/28 07:19:05;;;;;;;5.95;5.45;;;;;;;17.32;89.93;101371.28;6053111;23;20178;-81
2023/06/28 07:21:32;;;;;;;5.47;5.18;;;;;;;17.46;90.68;101365.84;6080357;23;20080;-81
2023/06/28 07:23:59;;;;;;;5.90;5.40;;;;;;;16.87;89.08;101243.56;6075215;23;20041;-79
2023/06/28 07:26:26;;;;;;;5.85;5.10;;;;;;;17.80;88.92;101357.25;6086342;23;20288;-80
2023/06/28 07:28:53;;;;;;;5.80;5.50;;;;;;;16.39;87.91;101077.28;6063447;23;20073;-80
2023/06/28 07:31:22;;;;;;;5.50;5.10;;;;;;;17.52;86.39;101243.34;6067540;23;20311;-81
2023/06/28 07:33:48;;;;;;;5.50;5.00;;;;;;;18.01;84.87;101329.19;6063568;23;20026;-83
2023/06/28 07:36:15;;;;;;;5.88;5.53;;;;;;;17.64;84.94;101222.16;6085918;23;20022;-82
2023/06/28 07:38:41;;;;;;;5.82;5.40;;;;;;;17.74;82.47;101247.91;6072580;23;20028;-80
2023/06/28 07:41:08;;;;;;;5.95;5.55;;;;;;;17.86;82.20;101247.97;6070965;23;20030;-81
2023/06/28 07:43:34;;;;;;;5.63;5.32;;;;;;;17.58;81.42;101159.78;6069510;23;20242;-81
2023/06/28 07:46:03;;;;;;;8.27;5.57;;;;;;;18.33;78.70;101286.94;6086495;23;20030;-81
2023/06/28 07:48:29;;;;;;;6.28;5.43;;;;;;;17.74;80.57;101234.66;6059088;23;20039;-83
2023/06/28 07:50:56;;;;;;;5.85;5.53;;;;;;;18.18;80.70;101256.22;6082893;23;20118;-84
2023/06/28 07:53:22;;;;;;;6.00;5.60;;;;;;;18.36;80.16;101239.81;6085809;23;20102;-81
2023/06/28 07:55:49;;;;;;;8.77;5.70;;;;;;;18.46;79.82;101248.78;6093889;23;20010;-82
2023/06/28 07:58:15;;;;;;;6.57;6.07;;;;;;;19.12;81.20;101323.47;6085577;23;20021;-82
2023/06/28 08:00:42;;;;;;;5.88;5.50;;;;;;;19.29;80.57;101276.94;6064239;23;20111;-82
2023/06/28 08:03:09;;;;;;;6.50;6.10;;;;;;;19.16;76.46;101186.56;6094262;23;20025;-82
2023/06/28 08:05:36;;;;;;;6.30;5.80;;;;;;;18.28;72.66;100988.00;6057094;23;20037;-80
2023/06/28 08:08:03;;;;;;;6.20;5.80;;;;;;;19.73;73.17;101216.59;6062735;23;20029;-80
2023/06/28 08:10:29;;;;;;;6.70;6.20;;;;;;;19.86;71.14;101219.06;6058605;23;20067;-82
2023/06/28 08:12:56;;;;;;;5.93;5.55;;;;;;;18.99;72.26;101113.47;6065367;23;20029;-79
2023/06/28 08:15:23;;;;;;;6.00;5.60;;;;;;;19.52;68.71;101165.91;6053962;23;20073;-80
2023/06/28 08:17:50;;;;;;;6.07;5.63;;;;;;;19.68;69.30;101184.97;6075332;23;20014;-81
2023/06/28 08:20:17;;;;;;;6.70;6.30;;;;;;;20.06;68.77;101209.41;6048687;23;20253;-80
2023/06/28 08:22:43;;;;;;;6.63;6.20;;;;;;;19.50;68.74;101119.94;6072420;23;20030;-80
2023/06/28 08:25:10;;;;;;;6.38;5.75;;;;;;;19.45;68.90;101099.03;6052875;23;20151;-81
2023/06/28 08:27:37;;;;;;;5.80;5.40;;;;;;;19.98;68.94;101209.22;6094663;23;20040;-81
2023/06/28 08:30:04;;;;;;;5.78;5.45;;;;;;;19.76;69.04;101173.72;6046619;23;20034;-81
2023/06/28 08:32:34;;;;;;;6.22;5.55;;;;;;;19.76;67.13;101147.06;6070527;23;20080;-80
2023/06/28 08:35:02;;;;;;;5.30;5.10;;;;;;;19.58;67.46;101124.63;6069137;23;20087;-80
2023/06/28 08:37:32;;;;;;;5.90;5.60;;;;;;;19.70;67.21;101129.78;6087065;23;20038;-81
2023/06/28 08:39:58;;;;;;;5.78;5.35;;;;;;;19.79;66.16;101122.88;6063592;23;20042;-82
2023/06/28 08:42:28;;;;;;;6.20;5.78;;;;;;;19.70;67.36;101137.78;6081034;23;20029;-80
2023/06/28 08:44:56;;;;;;;5.70;5.40;;;;;;;19.73;65.95;101142.03;6044867;23;20022;-82
2023/06/28 08:47:27;;;;;;;5.88;5.38;;;;;;;19.23;68.28;101091.16;6087410;23;20322;-81
2023/06/28 08:49:54;;;;;;;5.68;5.38;;;;;;;19.54;67.75;101121.38;6062258;23;20089;-81
2023/06/28 08:52:23;;;;;;;5.60;5.30;;;;;;;20.08;67.28;101167.50;6062258;23;20013;-80
2023/06/28 08:54:51;;;;;;;5.85;5.50;;;;;;;19.76;66.59;101083.16;6032321;23;20182;-81
2023/06/28 08:57:18;;;;;;;5.82;5.43;;;;;;;20.00;64.07;101076.72;6066436;23;20018;-81
2023/06/28 08:59:46;;;;;;;5.55;5.25;;;;;;;18.99;62.49;100945.06;6056785;23;20025;-81
2023/06/28 09:02:17;;;;;;;5.85;5.53;;;;;;;19.63;63.05;101005.28;6062484;23;20044;-81
2023/06/28 09:04:47;;;;;;;6.07;5.68;;;;;;;20.18;62.47;101066.28;6057143;23;20041;-81
2023/06/28 09:07:15;;;;;;;6.10;5.68;;;;;;;19.79;63.02;101018.16;6061682;23;20057;-81
2023/06/28 09:09:46;;;;;;;6.05;5.60;;;;;;;20.33;61.68;101078.28;6054363;23;20089;-81
2023/06/28 09:12:13;;;;;;;5.75;5.45;;;;;;;19.96;61.51;101030.00;6063458;23;20032;-81
2023/06/28 09:14:40;;;;;;;6.00;5.70;;;;;;;19.86;61.22;101009.47;6049353;23;20268;-81
2023/06/28 09:17:06;;;;;;;6.20;5.60;;;;;;;20.11;62.44;101077.50;6055069;23;20435;-81
2023/06/28 09:19:32;;;;;;;5.20;5.00;;;;;;;19.87;63.29;101074.28;6052961;23;20034;-82
2023/06/28 09:22:03;;;;;;;5.70;5.40;;;;;;;19.70;63.03;101041.91;6050452;23;20035;-80
2023/06/28 09:24:37;;;;;;;5.85;5.38;;;;;;;20.10;63.80;101109.59;6050004;23;20117;-81
2023/06/28 09:27:05;;;;;;;6.13;5.63;;;;;;;20.32;64.40;101141.41;6045524;23;20038;-80
2023/06/28 09:29:32;;;;;;;5.45;5.15;;;;;;;20.55;64.23;101127.91;6057546;23;20472;-80
2023/06/28 09:32:00;;;;;;;5.82;5.43;;;;;;;20.60;63.00;101095.53;6050153;23;20070;-82
2023/06/28 09:34:26;;;;;;;6.15;5.75;;;;;;;20.03;61.74;101000.03;6053070;23;20046;-84
2023/06/28 09:36:55;;;;;;;6.00;5.60;;;;;;;20.03;61.25;100988.56;6083656;23;20118;-81
2023/06/28 09:39:23;;;;;;;5.97;5.38;;;;;;;20.35;61.17;101044.34;6057444;23;20222;-81
2023/06/28 09:41:52;;;;;;;5.97;5.50;;;;;;;20.49;61.51;101075.13;6076109;23;20456;-83
2023/06/28 09:44:28;;;;;;;5.90;5.50;;;;;;;19.61;60.72;100906.06;6055632;23;20459;-82
2023/06/28 09:47:05;;;;;;;5.88;5.53;;;;;;;20.31;60.39;100971.81;6075245;23;20094;-82
2023/06/28 09:49:31;;;;;;;5.95;5.45;;;;;;;20.66;59.86;100996.31;6082913;23;20154;-83
2023/06/28 09:52:02;;;;;;;5.50;5.20;;;;;;;21.35;59.21;101056.75;6079376;23;20055;-79
2023/06/28 09:54:45;;;;;;;5.80;5.40;;;;;;;21.22;59.01;101005.44;6079797;23;20022;-82
2023/06/28 09:57:12;;;;;;;;;;;;;;;21.54;57.91;101033.69;6066817;23;20224;-81
2023/06/28 09:59:39;;;;;;;6.03;5.47;;;;;;;21.14;57.42;100947.44;6052173;23;19919;-80
2023/06/28 10:02:08;;;;;;;6.10;5.70;;;;;;;21.58;56.19;100976.34;6060938;23;20062;-81
2023/06/28 10:04:39;;;;;;;6.43;5.88;;;;;;;21.52;56.57;100999.09;6059945;23;20035;-81
2023/06/28 10:07:07;;;;;;;6.30;5.80;;;;;;;21.20;56.47;100946.03;6063203;23;20205;-81
2023/06/28 10:09:39;;;;;;;8.25;6.70;;;;;;;21.79;55.81;100995.69;6056917;23;20065;-81
2023/06/28 10:12:14;;;;;;;6.25;5.63;;;;;;;21.58;55.49;100931.75;6059589;23;20062;-85
2023/06/28 10:14:48;;;;;;;6.07;5.53;;;;;;;21.56;54.57;100895.50;6079117;23;20027;-81
2023/06/28 10:17:16;;;;;;;5.72;5.43;;;;;;;22.21;54.53;100976.50;6057677;23;20026;-82
2023/06/28 10:19:43;;;;;;;7.28;6.32;;;;;;;22.18;53.58;100909.94;6065171;23;20126;-81
2023/06/28 10:22:11;;;;;;;6.63;6.22;;;;;;;20.36;53.20;100616.03;6060835;23;20024;-80
2023/06/28 10:24:38;;;;;;;6.13;5.72;;;;;;;22.41;53.36;100913.06;6057616;23;20057;-81
2023/06/28 10:27:29;;;;;;;6.50;6.00;;;;;;;22.77;52.86;100952.34;6057641;23;20035;-80
2023/06/28 10:29:56;;;;;;;6.20;5.70;;;;;;;22.22;53.01;100849.00;6080531;23;20354;-80
2023/06/28 10:32:23;;;;;;;6.00;5.70;;;;;;;22.89;52.52;100937.72;6083595;23;20019;-83
2023/06/28 10:34:51;;;;;;;6.30;5.80;;;;;;;22.42;53.01;100912.06;6062806;23;20081;-80
2023/06/28 10:37:22;;;;;;;5.90;5.50;;;;;;;22.48;51.99;100873.19;6083092;23;20026;-81
2023/06/28 10:39:52;;;;;;;6.00;5.60;;;;;;;20.44;54.01;100648.13;6077540;23;20369;-80
2023/06/28 10:42:20;;;;;;;6.85;6.03;;;;;;;21.01;52.74;100722.78;6051874;23;20037;-81
2023/06/28 10:44:57;;;;;;;5.88;5.57;;;;;;;22.43;53.61;100967.25;6057979;23;20025;-79
2023/06/28 10:47:24;;;;;;;6.00;5.60;;;;;;;19.82;54.48;100603.25;6056742;23;20440;-82
2023/06/28 10:50:07;;;;;;;5.85;5.50;;;;;;;22.08;56.34;101029.44;6061247;23;20025;-83
2023/06/28 10:52:35;;;;;;;6.30;5.90;;;;;;;21.78;55.76;100985.97;6062845;23;20018;-80
2023/06/28 10:55:03;;;;;;;6.35;5.75;;;;;;;21.98;55.31;101020.63;6063504;23;20153;-80
2023/06/28 10:57:37;;;;;;;7.00;6.22;;;;;;;21.57;55.89;100980.84;6058182;23;20044;-82
2023/06/28 11:00:10;;;;;;;6.53;6.07;;;;;;;20.87;56.54;100913.50;6053701;23;20093;-81
2023/06/28 11:02:51;;;;;;;5.95;5.55;;;;;;;22.38;55.53;101039.06;6062353;23;20061;-80
2023/06/28 11:05:44;;;;;;;6.00;5.60;;;;;;;22.38;53.75;100969.53;6025964;23;20054;-82
2023/06/28 11:08:12;;;;;;;7.30;5.72;;;;;;;22.11;54.11;100948.97;6056119;23;20212;-81
2023/06/28 11:10:41;;;;;;;5.90;5.50;;;;;;;21.60;55.08;100872.88;6085988;23;20640;-80
2023/06/28 11:13:09;;;;;;;6.80;6.00;;;;;;;22.74;54.79;101028.41;6068373;23;20045;-80
2023/06/28 11:15:42;;;;;;;6.78;6.07;;;;;;;22.66;54.02;101013.13;6059553;23;20037;-81
2023/06/28 11:18:16;;;;;;;6.03;5.70;;;;;;;23.05;54.91;101053.03;6066442;23;20230;-79
2023/06/28 11:20:48;;;;;;;6.38;5.85;;;;;;;22.60;53.04;100946.84;6034929;23;20432;-81
2023/06/28 11:23:39;;;;;;;6.50;6.10;;;;;;;22.08;54.01;100893.97;6060418;23;20029;-81
2023/06/28 11:26:08;;;;;;;8.68;5.85;;;;;;;22.71;53.33;100961.81;6062642;23;20442;-80
2023/06/28 11:29:27;;;;;;;6.38;5.88;;;;;;;23.30;53.12;101019.25;6063441;23;20026;-83
2023/06/28 11:32:00;;;;;;;6.07;5.78;;;;;;;23.15;54.14;101036.03;5939475;24;20019;-80
2023/06/28 11:34:28;;;;;;;7.07;5.78;;;;;;;22.54;53.43;100899.31;5946641;23;20179;-80
2023/06/28 11:36:55;;;;;;;6.80;6.10;;;;;;;23.36;53.32;101014.28;6033868;23;20042;-82
2023/06/28 11:39:23;;;;;;;6.72;6.18;;;;;;;23.09;52.93;100936.59;6062356;23;20598;-83
2023/06/28 11:41:50;;;;;;;6.00;5.60;;;;;;;22.51;51.98;100819.38;6040095;23;20022;-81
2023/06/28 11:44:16;;;;;;;6.53;5.85;;;;;;;23.01;53.33;100949.91;6094393;23;20102;-83
2023/06/28 11:46:46;;;;;;;6.30;5.90;;;;;;;23.69;51.92;100985.84;6052480;23;20094;-79
2023/06/28 11:49:16;;;;;;;8.77;5.90;;;;;;;22.86;52.58;100898.75;6069597;23;20593;-81